sensor_id;sensor_type;location;lat;lon;timestamp;pressure;altitude;pressure_sealevel;temperature
51149;BMP280;37210;50.058;8.688;2023-04-01T00:00:47;98489.75;;;12.13
51149;BMP280;37210;50.058;8.688;2023-04-01T00:03:17;98459.25;;;11.85
51149;BMP280;37210;50.058;8.688;2023-04-01T00:05:45;98493.84;;;11.95
51149;BMP280;37210;50.058;8.688;2023-04-01T00:08:14;98502.81;;;11.88
51149;BMP280;37210;50.058;8.688;2023-04-01T00:10:42;98498.13;;;11.97
51149;BMP280;37210;50.058;8.688;2023-04-01T00:13:10;98486.53;;;12.04
51149;BMP280;37210;50.058;8.688;2023-04-01T00:15:41;98419.78;;;11.38
51149;BMP280;37210;50.058;8.688;2023-04-01T00:18:09;98489.66;;;11.89
51149;BMP280;37210;50.058;8.688;2023-04-01T00:20:43;98490.00;;;11.79
51149;BMP280;37210;50.058;8.688;2023-04-01T00:23:11;98432.84;;;11.65
51149;BMP280;37210;50.058;8.688;2023-04-01T00:25:39;98445.13;;;11.63
51149;BMP280;37210;50.058;8.688;2023-04-01T00:28:07;98438.06;;;11.65
51149;BMP280;37210;50.058;8.688;2023-04-01T00:30:35;98482.59;;;11.93
51149;BMP280;37210;50.058;8.688;2023-04-01T00:33:03;98486.75;;;11.98
51149;BMP280;37210;50.058;8.688;2023-04-01T00:35:32;98439.72;;;11.42
51149;BMP280;37210;50.058;8.688;2023-04-01T00:38:01;98457.09;;;11.72
51149;BMP280;37210;50.058;8.688;2023-04-01T00:40:31;98457.91;;;11.74
51149;BMP280;37210;50.058;8.688;2023-04-01T00:43:02;98489.72;;;11.88
51149;BMP280;37210;50.058;8.688;2023-04-01T00:45:38;98432.09;;;11.62
51149;BMP280;37210;50.058;8.688;2023-04-01T00:48:11;98489.19;;;11.78
51149;BMP280;37210;50.058;8.688;2023-04-01T00:50:44;98306.22;;;10.91
51149;BMP280;37210;50.058;8.688;2023-04-01T00:53:19;98473.41;;;11.80
51149;BMP280;37210;50.058;8.688;2023-04-01T00:55:51;98486.03;;;11.93
51149;BMP280;37210;50.058;8.688;2023-04-01T00:58:24;98481.66;;;11.68
51149;BMP280;37210;50.058;8.688;2023-04-01T01:00:57;98488.41;;;12.01
51149;BMP280;37210;50.058;8.688;2023-04-01T01:03:26;98487.75;;;11.94
51149;BMP280;37210;50.058;8.688;2023-04-01T01:06:08;98357.19;;;11.04
51149;BMP280;37210;50.058;8.688;2023-04-01T01:09:06;98478.13;;;11.69
51149;BMP280;37210;50.058;8.688;2023-04-01T01:11:57;98492.34;;;11.88
51149;BMP280;37210;50.058;8.688;2023-04-01T01:14:40;98483.88;;;11.80
51149;BMP280;37210;50.058;8.688;2023-04-01T01:17:26;98476.97;;;11.77
51149;BMP280;37210;50.058;8.688;2023-04-01T01:24:13;98482.47;;;11.70
51149;BMP280;37210;50.058;8.688;2023-04-01T01:27:00;98473.88;;;11.65
51149;BMP280;37210;50.058;8.688;2023-04-01T01:35:52;98479.44;;;11.82
51149;BMP280;37210;50.058;8.688;2023-04-01T01:38:26;98481.47;;;11.74
51149;BMP280;37210;50.058;8.688;2023-04-01T01:41:02;98468.31;;;11.75
51149;BMP280;37210;50.058;8.688;2023-04-01T01:43:35;98450.19;;;11.69
51149;BMP280;37210;50.058;8.688;2023-04-01T01:46:08;98451.94;;;11.69
51149;BMP280;37210;50.058;8.688;2023-04-01T01:48:41;98423.53;;;11.57
51149;BMP280;37210;50.058;8.688;2023-04-01T01:51:12;98496.63;;;11.90
51149;BMP280;37210;50.058;8.688;2023-04-01T01:53:40;98386.31;;;11.21
51149;BMP280;37210;50.058;8.688;2023-04-01T01:56:10;98243.91;;;10.50
51149;BMP280;37210;50.058;8.688;2023-04-01T01:58:43;98457.94;;;11.72
51149;BMP280;37210;50.058;8.688;2023-04-01T02:01:18;98491.84;;;12.03
51149;BMP280;37210;50.058;8.688;2023-04-01T02:03:51;98477.25;;;11.70
51149;BMP280;37210;50.058;8.688;2023-04-01T02:06:23;98485.13;;;11.94
51149;BMP280;37210;50.058;8.688;2023-04-01T02:08:55;98489.44;;;11.97
51149;BMP280;37210;50.058;8.688;2023-04-01T02:11:28;98457.28;;;11.92
51149;BMP280;37210;50.058;8.688;2023-04-01T02:14:03;98457.28;;;11.64
51149;BMP280;37210;50.058;8.688;2023-04-01T02:16:36;98484.75;;;11.80
51149;BMP280;37210;50.058;8.688;2023-04-01T02:19:08;98481.47;;;11.74
51149;BMP280;37210;50.058;8.688;2023-04-01T02:21:42;98450.13;;;11.71
51149;BMP280;37210;50.058;8.688;2023-04-01T02:24:13;98396.94;;;11.43
51149;BMP280;37210;50.058;8.688;2023-04-01T02:26:42;98478.44;;;11.86
51149;BMP280;37210;50.058;8.688;2023-04-01T02:29:13;98445.84;;;11.68
51149;BMP280;37210;50.058;8.688;2023-04-01T02:31:41;98476.72;;;11.85
51149;BMP280;37210;50.058;8.688;2023-04-01T02:34:10;98385.91;;;11.33
51149;BMP280;37210;50.058;8.688;2023-04-01T02:36:39;98473.25;;;11.84
51149;BMP280;37210;50.058;8.688;2023-04-01T02:39:08;98435.09;;;11.50
51149;BMP280;37210;50.058;8.688;2023-04-01T02:41:40;98472.75;;;11.73
51149;BMP280;37210;50.058;8.688;2023-04-01T02:44:09;98474.91;;;11.87
51149;BMP280;37210;50.058;8.688;2023-04-01T02:46:38;98475.72;;;11.89
51149;BMP280;37210;50.058;8.688;2023-04-01T02:49:06;98479.94;;;11.67
51149;BMP280;37210;50.058;8.688;2023-04-01T02:51:34;98445.06;;;11.65
51149;BMP280;37210;50.058;8.688;2023-04-01T02:54:02;98475.91;;;11.83
51149;BMP280;37210;50.058;8.688;2023-04-01T02:56:31;98479.97;;;11.93
51149;BMP280;37210;50.058;8.688;2023-04-01T02:58:59;98410.13;;;11.40
51149;BMP280;37210;50.058;8.688;2023-04-01T03:01:26;98467.50;;;11.73
51149;BMP280;37210;50.058;8.688;2023-04-01T03:03:54;98437.19;;;11.66
51149;BMP280;37210;50.058;8.688;2023-04-01T03:06:22;98482.75;;;11.87
51149;BMP280;37210;50.058;8.688;2023-04-01T03:08:49;98447.94;;;11.57
51149;BMP280;37210;50.058;8.688;2023-04-01T03:11:17;98311.59;;;10.59
51149;BMP280;37210;50.058;8.688;2023-04-01T03:13:47;98425.88;;;11.38
51149;BMP280;37210;50.058;8.688;2023-04-01T03:16:15;98452.31;;;11.57
51149;BMP280;37210;50.058;8.688;2023-04-01T03:18:43;98386.75;;;11.34
51149;BMP280;37210;50.058;8.688;2023-04-01T03:21:15;98393.72;;;11.35
51149;BMP280;37210;50.058;8.688;2023-04-01T03:23:44;98406.09;;;11.30
51149;BMP280;37210;50.058;8.688;2023-04-01T03:26:12;98479.75;;;11.73
51149;BMP280;37210;50.058;8.688;2023-04-01T03:28:40;98351.13;;;11.03
51149;BMP280;37210;50.058;8.688;2023-04-01T03:31:10;98362.81;;;11.19
51149;BMP280;37210;50.058;8.688;2023-04-01T03:33:44;98458.34;;;11.59
51149;BMP280;37210;50.058;8.688;2023-04-01T03:36:11;98478.03;;;11.72
51149;BMP280;37210;50.058;8.688;2023-04-01T03:38:40;98479.31;;;11.59
51149;BMP280;37210;50.058;8.688;2023-04-01T03:41:13;98477.34;;;11.65
51149;BMP280;37210;50.058;8.688;2023-04-01T03:43:43;98470.34;;;11.66
51149;BMP280;37210;50.058;8.688;2023-04-01T03:46:16;98461.69;;;11.64
51149;BMP280;37210;50.058;8.688;2023-04-01T03:48:44;98429.59;;;11.31
51149;BMP280;37210;50.058;8.688;2023-04-01T03:51:12;98448.69;;;11.61
51149;BMP280;37210;50.058;8.688;2023-04-01T03:53:40;98442.13;;;11.48
51149;BMP280;37210;50.058;8.688;2023-04-01T03:56:09;98353.03;;;10.98
51149;BMP280;37210;50.058;8.688;2023-04-01T03:58:37;98296.50;;;10.67
51149;BMP280;37210;50.058;8.688;2023-04-01T04:01:16;98472.31;;;11.59
51149;BMP280;37210;50.058;8.688;2023-04-01T04:03:47;98467.50;;;11.46
51149;BMP280;37210;50.058;8.688;2023-04-01T04:06:17;98327.47;;;10.80
51149;BMP280;37210;50.058;8.688;2023-04-01T04:08:46;98395.88;;;11.22
51149;BMP280;37210;50.058;8.688;2023-04-01T04:11:14;98415.09;;;11.21
51149;BMP280;37210;50.058;8.688;2023-04-01T04:13:45;98340.44;;;10.83
51149;BMP280;37210;50.058;8.688;2023-04-01T04:16:17;98493.28;;;11.58
51149;BMP280;37210;50.058;8.688;2023-04-01T04:18:52;98342.84;;;10.89
51149;BMP280;37210;50.058;8.688;2023-04-01T04:21:20;98479.97;;;11.65
51149;BMP280;37210;50.058;8.688;2023-04-01T04:23:47;98342.16;;;10.84
51149;BMP280;37210;50.058;8.688;2023-04-01T04:26:18;98432.00;;;11.37
51149;BMP280;37210;50.058;8.688;2023-04-01T04:28:57;98262.16;;;10.51
51149;BMP280;37210;50.058;8.688;2023-04-01T04:31:27;98474.72;;;11.65
51149;BMP280;37210;50.058;8.688;2023-04-01T04:33:59;98327.66;;;10.74
51149;BMP280;37210;50.058;8.688;2023-04-01T04:36:27;98452.00;;;11.67
51149;BMP280;37210;50.058;8.688;2023-04-01T04:38:55;98440.44;;;11.47
51149;BMP280;37210;50.058;8.688;2023-04-01T04:41:25;98471.38;;;11.62
51149;BMP280;37210;50.058;8.688;2023-04-01T04:43:55;98410.78;;;11.18
51149;BMP280;37210;50.058;8.688;2023-04-01T04:46:26;98438.63;;;11.49
51149;BMP280;37210;50.058;8.688;2023-04-01T04:49:01;98441.31;;;11.46
51149;BMP280;37210;50.058;8.688;2023-04-01T04:51:31;98439.63;;;11.45
51149;BMP280;37210;50.058;8.688;2023-04-01T04:54:00;98370.66;;;10.92
51149;BMP280;37210;50.058;8.688;2023-04-01T04:56:40;98428.72;;;11.31
51149;BMP280;37210;50.058;8.688;2023-04-01T04:59:10;98451.22;;;11.64
51149;BMP280;37210;50.058;8.688;2023-04-01T05:01:49;98283.16;;;10.48
51149;BMP280;37210;50.058;8.688;2023-04-01T05:04:17;98469.31;;;11.71
51149;BMP280;37210;50.058;8.688;2023-04-01T05:06:44;98346.38;;;10.88
51149;BMP280;37210;50.058;8.688;2023-04-01T05:09:12;98440.66;;;11.39
51149;BMP280;37210;50.058;8.688;2023-04-01T05:11:43;98473.47;;;11.78
51149;BMP280;37210;50.058;8.688;2023-04-01T05:14:14;98471.88;;;11.73
51149;BMP280;37210;50.058;8.688;2023-04-01T05:16:56;98456.03;;;11.50
51149;BMP280;37210;50.058;8.688;2023-04-01T05:19:24;98342.03;;;10.87
51149;BMP280;37210;50.058;8.688;2023-04-01T05:21:52;98414.13;;;11.23
51149;BMP280;37210;50.058;8.688;2023-04-01T05:24:20;98357.34;;;10.99
51149;BMP280;37210;50.058;8.688;2023-04-01T05:26:48;98428.28;;;11.44
51149;BMP280;37210;50.058;8.688;2023-04-01T05:29:16;98272.44;;;10.57
51149;BMP280;37210;50.058;8.688;2023-04-01T05:31:46;98470.34;;;11.66
51149;BMP280;37210;50.058;8.688;2023-04-01T05:34:17;98238.31;;;10.34
51149;BMP280;37210;50.058;8.688;2023-04-01T05:36:45;98430.25;;;11.38
51149;BMP280;37210;50.058;8.688;2023-04-01T05:39:12;98387.69;;;11.33
51149;BMP280;37210;50.058;8.688;2023-04-01T05:41:43;98442.78;;;11.54
51149;BMP280;37210;50.058;8.688;2023-04-01T05:44:11;98439.63;;;11.45
51149;BMP280;37210;50.058;8.688;2023-04-01T05:46:39;98379.19;;;10.98
51149;BMP280;37210;50.058;8.688;2023-04-01T05:49:24;98456.47;;;11.62
51149;BMP280;37210;50.058;8.688;2023-04-01T05:51:52;98349.22;;;10.81
51149;BMP280;37210;50.058;8.688;2023-04-01T05:54:21;98463.19;;;11.45
51149;BMP280;37210;50.058;8.688;2023-04-01T05:56:49;98466.03;;;11.37
51149;BMP280;37210;50.058;8.688;2023-04-01T05:59:19;98466.69;;;11.44
51149;BMP280;37210;50.058;8.688;2023-04-01T06:01:47;98406.69;;;11.11
51149;BMP280;37210;50.058;8.688;2023-04-01T06:04:16;98458.03;;;11.42
51149;BMP280;37210;50.058;8.688;2023-04-01T06:06:49;98466.53;;;11.22
51149;BMP280;37210;50.058;8.688;2023-04-01T06:09:23;98478.69;;;11.23
51149;BMP280;37210;50.058;8.688;2023-04-01T06:12:14;98421.97;;;10.96
51149;BMP280;37210;50.058;8.688;2023-04-01T06:15:10;98457.38;;;11.07
51149;BMP280;37210;50.058;8.688;2023-04-01T06:18:11;98471.25;;;11.37
51149;BMP280;37210;50.058;8.688;2023-04-01T06:21:00;98464.53;;;11.30
51149;BMP280;37210;50.058;8.688;2023-04-01T06:23:56;98467.69;;;11.40
51149;BMP280;37210;50.058;8.688;2023-04-01T06:26:37;98453.44;;;11.22
51149;BMP280;37210;50.058;8.688;2023-04-01T06:29:41;98464.78;;;11.49
51149;BMP280;37210;50.058;8.688;2023-04-01T06:32:30;98399.34;;;10.95
51149;BMP280;37210;50.058;8.688;2023-04-01T06:35:31;98464.34;;;11.36
51149;BMP280;37210;50.058;8.688;2023-04-01T06:38:34;98471.44;;;11.33
51149;BMP280;37210;50.058;8.688;2023-04-01T06:41:24;98472.69;;;11.19
51149;BMP280;37210;50.058;8.688;2023-04-01T06:44:14;98463.56;;;11.33
51149;BMP280;37210;50.058;8.688;2023-04-01T06:47:24;98467.63;;;11.43
51149;BMP280;37210;50.058;8.688;2023-04-01T06:50:26;98463.00;;;11.51
51149;BMP280;37210;50.058;8.688;2023-04-01T06:53:33;98432.53;;;11.48
51149;BMP280;37210;50.058;8.688;2023-04-01T06:56:52;98462.19;;;11.49
51149;BMP280;37210;50.058;8.688;2023-04-01T06:59:26;98459.38;;;11.55
51149;BMP280;37210;50.058;8.688;2023-04-01T07:02:00;98446.75;;;11.67
51149;BMP280;37210;50.058;8.688;2023-04-01T07:04:34;98463.06;;;11.75
51149;BMP280;37210;50.058;8.688;2023-04-01T07:07:12;98429.56;;;11.33
51149;BMP280;37210;50.058;8.688;2023-04-01T07:09:56;98441.75;;;11.60
51149;BMP280;37210;50.058;8.688;2023-04-01T07:12:38;98463.53;;;11.60
51149;BMP280;37210;50.058;8.688;2023-04-01T07:15:39;98475.78;;;11.60
51149;BMP280;37210;50.058;8.688;2023-04-01T07:18:14;98428.56;;;11.37
51149;BMP280;37210;50.058;8.688;2023-04-01T07:20:46;98433.53;;;11.44
51149;BMP280;37210;50.058;8.688;2023-04-01T07:23:21;98414.53;;;11.38
51149;BMP280;37210;50.058;8.688;2023-04-01T07:26:01;98334.50;;;10.78
51149;BMP280;37210;50.058;8.688;2023-04-01T07:29:01;98486.94;;;11.66
51149;BMP280;37210;50.058;8.688;2023-04-01T07:32:06;98482.16;;;11.79
51149;BMP280;37210;50.058;8.688;2023-04-01T07:34:50;98483.66;;;11.60
51149;BMP280;37210;50.058;8.688;2023-04-01T07:37:35;98483.75;;;11.83
51149;BMP280;37210;50.058;8.688;2023-04-01T07:40:18;98454.41;;;11.46
51149;BMP280;37210;50.058;8.688;2023-04-01T07:43:14;98462.81;;;11.83
51149;BMP280;37210;50.058;8.688;2023-04-01T07:46:34;98486.38;;;12.09
51149;BMP280;37210;50.058;8.688;2023-04-01T07:49:17;98289.41;;;10.98
51149;BMP280;37210;50.058;8.688;2023-04-01T07:51:59;98483.66;;;12.12
51149;BMP280;37210;50.058;8.688;2023-04-01T07:54:40;98497.16;;;12.26
51149;BMP280;37210;50.058;8.688;2023-04-01T07:57:18;98456.59;;;12.12
51149;BMP280;37210;50.058;8.688;2023-04-01T07:59:59;98346.69;;;11.58
51149;BMP280;37210;50.058;8.688;2023-04-01T08:02:58;98496.50;;;12.44
51149;BMP280;37210;50.058;8.688;2023-04-01T08:05:44;98453.06;;;12.13
51149;BMP280;37210;50.058;8.688;2023-04-01T08:08:29;98359.13;;;11.77
51149;BMP280;37210;50.058;8.688;2023-04-01T08:11:41;98499.06;;;12.46
51149;BMP280;37210;50.058;8.688;2023-04-01T08:14:50;98361.22;;;11.68
51149;BMP280;37210;50.058;8.688;2023-04-01T08:17:41;98499.50;;;12.58
51149;BMP280;37210;50.058;8.688;2023-04-01T08:20:25;98502.19;;;12.57
51149;BMP280;37210;50.058;8.688;2023-04-01T08:23:01;98351.88;;;11.59
51149;BMP280;37210;50.058;8.688;2023-04-01T08:25:40;98365.63;;;11.66
51149;BMP280;37210;50.058;8.688;2023-04-01T08:28:19;98489.44;;;12.46
51149;BMP280;37210;50.058;8.688;2023-04-01T08:30:53;98509.13;;;12.33
51149;BMP280;37210;50.058;8.688;2023-04-01T08:33:29;98509.94;;;12.60
51149;BMP280;37210;50.058;8.688;2023-04-01T08:36:03;98513.63;;;12.54
51149;BMP280;37210;50.058;8.688;2023-04-01T08:38:40;98509.34;;;12.52
51149;BMP280;37210;50.058;8.688;2023-04-01T08:41:34;98513.03;;;12.46
51149;BMP280;37210;50.058;8.688;2023-04-01T08:45:09;98513.97;;;12.45
51149;BMP280;37210;50.058;8.688;2023-04-01T08:51:57;98519.72;;;12.55
51149;BMP280;37210;50.058;8.688;2023-04-01T08:54:55;98524.38;;;12.47
51149;BMP280;37210;50.058;8.688;2023-04-01T08:58:32;98519.66;;;12.56
51149;BMP280;37210;50.058;8.688;2023-04-01T09:01:37;98523.22;;;12.55
51149;BMP280;37210;50.058;8.688;2023-04-01T09:08:18;98534.28;;;12.39
51149;BMP280;37210;50.058;8.688;2023-04-01T09:11:08;98530.75;;;12.64
51149;BMP280;37210;50.058;8.688;2023-04-01T09:14:31;98513.66;;;12.77
51149;BMP280;37210;50.058;8.688;2023-04-01T09:17:44;98517.81;;;12.60
51149;BMP280;37210;50.058;8.688;2023-04-01T09:20:42;98498.84;;;12.52
51149;BMP280;37210;50.058;8.688;2023-04-01T09:23:43;98534.38;;;12.60
51149;BMP280;37210;50.058;8.688;2023-04-01T09:26:50;98537.41;;;12.74
51149;BMP280;37210;50.058;8.688;2023-04-01T09:36:23;98547.19;;;12.69
51149;BMP280;37210;50.058;8.688;2023-04-01T09:39:17;98532.59;;;12.85
51149;BMP280;37210;50.058;8.688;2023-04-01T09:42:14;98426.00;;;12.12
51149;BMP280;37210;50.058;8.688;2023-04-01T09:45:07;98548.03;;;12.95
51149;BMP280;37210;50.058;8.688;2023-04-01T09:47:55;98553.91;;;13.01
51149;BMP280;37210;50.058;8.688;2023-04-01T09:50:35;98557.19;;;13.08
51149;BMP280;37210;50.058;8.688;2023-04-01T09:53:29;98552.69;;;13.11
51149;BMP280;37210;50.058;8.688;2023-04-01T09:56:56;98561.50;;;13.09
51149;BMP280;37210;50.058;8.688;2023-04-01T09:59:54;98411.97;;;12.38
51149;BMP280;37210;50.058;8.688;2023-04-01T10:06:27;98562.09;;;13.40
51149;BMP280;37210;50.058;8.688;2023-04-01T10:09:47;98562.25;;;13.35
51149;BMP280;37210;50.058;8.688;2023-04-01T10:19:49;98560.22;;;13.65
51149;BMP280;37210;50.058;8.688;2023-04-01T10:22:58;98541.88;;;13.42
51149;BMP280;37210;50.058;8.688;2023-04-01T10:26:09;98565.63;;;13.62
51149;BMP280;37210;50.058;8.688;2023-04-01T10:36:04;98493.56;;;13.24
51149;BMP280;37210;50.058;8.688;2023-04-01T10:39:11;98566.34;;;13.66
51149;BMP280;37210;50.058;8.688;2023-04-01T10:42:38;98569.28;;;13.80
51149;BMP280;37210;50.058;8.688;2023-04-01T10:52:53;98562.38;;;13.55
51149;BMP280;37210;50.058;8.688;2023-04-01T10:56:39;98562.47;;;13.52
51149;BMP280;37210;50.058;8.688;2023-04-01T11:03:26;98568.03;;;13.67
51149;BMP280;37210;50.058;8.688;2023-04-01T11:07:05;98571.66;;;13.86
51149;BMP280;37210;50.058;8.688;2023-04-01T11:10:49;98571.97;;;14.00
51149;BMP280;37210;50.058;8.688;2023-04-01T11:20:27;98564.28;;;13.95
51149;BMP280;37210;50.058;8.688;2023-04-01T11:23:32;98567.75;;;13.96
51149;BMP280;37210;50.058;8.688;2023-04-01T11:26:33;98576.13;;;14.05
51149;BMP280;37210;50.058;8.688;2023-04-01T11:29:41;98546.00;;;14.14
51149;BMP280;37210;50.058;8.688;2023-04-01T11:32:42;98549.34;;;14.17
51149;BMP280;37210;50.058;8.688;2023-04-01T11:38:45;98547.84;;;14.54
51149;BMP280;37210;50.058;8.688;2023-04-01T11:41:52;98563.03;;;14.25
51149;BMP280;37210;50.058;8.688;2023-04-01T11:44:54;98572.09;;;14.18
51149;BMP280;37210;50.058;8.688;2023-04-01T11:47:48;98542.44;;;14.15
51149;BMP280;37210;50.058;8.688;2023-04-01T11:50:46;98571.63;;;14.30
51149;BMP280;37210;50.058;8.688;2023-04-01T11:53:35;98566.53;;;14.26
51149;BMP280;37210;50.058;8.688;2023-04-01T11:56:20;98535.66;;;14.09
51149;BMP280;37210;50.058;8.688;2023-04-01T11:59:24;98573.13;;;14.14
51149;BMP280;37210;50.058;8.688;2023-04-01T12:02:14;98581.75;;;14.18
51149;BMP280;37210;50.058;8.688;2023-04-01T12:05:14;98572.63;;;14.26
51149;BMP280;37210;50.058;8.688;2023-04-01T12:08:41;98517.97;;;13.93
51149;BMP280;37210;50.058;8.688;2023-04-01T12:11:25;98570.84;;;14.27
51149;BMP280;37210;50.058;8.688;2023-04-01T12:14:07;98458.31;;;13.73
51149;BMP280;37210;50.058;8.688;2023-04-01T12:16:47;98547.66;;;13.95
51149;BMP280;37210;50.058;8.688;2023-04-01T12:19:31;98573.53;;;14.25
51149;BMP280;37210;50.058;8.688;2023-04-01T12:22:20;98549.41;;;13.94
51149;BMP280;37210;50.058;8.688;2023-04-01T12:25:03;98582.63;;;13.97
51149;BMP280;37210;50.058;8.688;2023-04-01T12:27:53;98594.22;;;14.13
51149;BMP280;37210;50.058;8.688;2023-04-01T12:30:48;98604.00;;;14.31
51149;BMP280;37210;50.058;8.688;2023-04-01T12:34:00;98609.13;;;14.12
51149;BMP280;37210;50.058;8.688;2023-04-01T12:36:53;98613.81;;;14.06
51149;BMP280;37210;50.058;8.688;2023-04-01T12:39:48;98606.22;;;14.20
51149;BMP280;37210;50.058;8.688;2023-04-01T12:42:51;98603.22;;;14.07
51149;BMP280;37210;50.058;8.688;2023-04-01T12:45:45;98611.38;;;14.00
51149;BMP280;37210;50.058;8.688;2023-04-01T12:52:03;98592.75;;;13.84
51149;BMP280;37210;50.058;8.688;2023-04-01T12:54:56;98589.50;;;13.78
51149;BMP280;37210;50.058;8.688;2023-04-01T13:01:42;98617.31;;;13.83
51149;BMP280;37210;50.058;8.688;2023-04-01T13:08:12;98620.00;;;14.25
51149;BMP280;37210;50.058;8.688;2023-04-01T13:11:03;98602.41;;;14.05
51149;BMP280;37210;50.058;8.688;2023-04-01T13:16:58;98614.44;;;14.54
51149;BMP280;37210;50.058;8.688;2023-04-01T13:19:39;98624.06;;;14.55
51149;BMP280;37210;50.058;8.688;2023-04-01T13:22:18;98610.09;;;14.33
51149;BMP280;37210;50.058;8.688;2023-04-01T13:24:58;98618.09;;;14.30
51149;BMP280;37210;50.058;8.688;2023-04-01T13:27:36;98588.53;;;14.45
51149;BMP280;37210;50.058;8.688;2023-04-01T13:30:24;98590.38;;;14.21
51149;BMP280;37210;50.058;8.688;2023-04-01T13:33:04;98622.22;;;14.57
51149;BMP280;37210;50.058;8.688;2023-04-01T13:35:45;98644.16;;;14.78
51149;BMP280;37210;50.058;8.688;2023-04-01T13:38:40;98645.13;;;14.75
51149;BMP280;37210;50.058;8.688;2023-04-01T13:41:22;98649.91;;;14.46
51149;BMP280;37210;50.058;8.688;2023-04-01T13:44:03;98642.72;;;14.49
51149;BMP280;37210;50.058;8.688;2023-04-01T13:46:48;98652.28;;;14.52
51149;BMP280;37210;50.058;8.688;2023-04-01T13:49:55;98644.84;;;14.61
51149;BMP280;37210;50.058;8.688;2023-04-01T13:53:22;98655.66;;;14.75
51149;BMP280;37210;50.058;8.688;2023-04-01T13:56:23;98648.88;;;14.70
51149;BMP280;37210;50.058;8.688;2023-04-01T13:59:03;98629.78;;;14.65
51149;BMP280;37210;50.058;8.688;2023-04-01T14:01:58;98656.59;;;14.53
51149;BMP280;37210;50.058;8.688;2023-04-01T14:04:49;98623.16;;;14.34
51149;BMP280;37210;50.058;8.688;2023-04-01T14:07:45;98652.41;;;14.69
51149;BMP280;37210;50.058;8.688;2023-04-01T14:10:30;98655.44;;;14.38
51149;BMP280;37210;50.058;8.688;2023-04-01T14:13:10;98661.06;;;14.51
51149;BMP280;37210;50.058;8.688;2023-04-01T14:15:54;98669.94;;;14.48
51149;BMP280;37210;50.058;8.688;2023-04-01T14:19:11;98636.44;;;14.31
51149;BMP280;37210;50.058;8.688;2023-04-01T14:21:55;98674.25;;;14.27
51149;BMP280;37210;50.058;8.688;2023-04-01T14:24:45;98678.16;;;14.40
51149;BMP280;37210;50.058;8.688;2023-04-01T14:27:41;98670.59;;;14.33
51149;BMP280;37210;50.058;8.688;2023-04-01T14:30:50;98662.19;;;14.00
51149;BMP280;37210;50.058;8.688;2023-04-01T14:33:39;98662.09;;;14.03
51149;BMP280;37210;50.058;8.688;2023-04-01T14:36:59;98612.50;;;13.49
51149;BMP280;37210;50.058;8.688;2023-04-01T14:40:06;98640.56;;;13.71
51149;BMP280;37210;50.058;8.688;2023-04-01T14:42:58;98625.28;;;13.35
51149;BMP280;37210;50.058;8.688;2023-04-01T14:45:46;98683.75;;;13.87
51149;BMP280;37210;50.058;8.688;2023-04-01T14:48:31;98654.22;;;13.57
51149;BMP280;37210;50.058;8.688;2023-04-01T14:51:04;98627.41;;;13.49
51149;BMP280;37210;50.058;8.688;2023-04-01T14:53:44;98691.34;;;13.71
51149;BMP280;37210;50.058;8.688;2023-04-01T14:56:38;98690.47;;;13.71
51149;BMP280;37210;50.058;8.688;2023-04-01T14:59:14;98693.75;;;13.77
51149;BMP280;37210;50.058;8.688;2023-04-01T15:01:58;98661.31;;;13.55
51149;BMP280;37210;50.058;8.688;2023-04-01T15:04:49;98628.13;;;13.52
51149;BMP280;37210;50.058;8.688;2023-04-01T15:11:01;98678.50;;;14.08
51149;BMP280;37210;50.058;8.688;2023-04-01T15:17:04;98699.06;;;13.99
51149;BMP280;37210;50.058;8.688;2023-04-01T15:19:56;98669.59;;;13.91
51149;BMP280;37210;50.058;8.688;2023-04-01T15:22:50;98680.28;;;13.86
51149;BMP280;37210;50.058;8.688;2023-04-01T15:25:39;98700.00;;;14.19
51149;BMP280;37210;50.058;8.688;2023-04-01T15:28:25;98554.84;;;13.23
51149;BMP280;37210;50.058;8.688;2023-04-01T15:31:02;98693.47;;;13.85
51149;BMP280;37210;50.058;8.688;2023-04-01T15:34:07;98704.72;;;13.88
51149;BMP280;37210;50.058;8.688;2023-04-01T15:36:52;98551.19;;;12.79
51149;BMP280;37210;50.058;8.688;2023-04-01T15:39:42;98629.00;;;13.53
51149;BMP280;37210;50.058;8.688;2023-04-01T15:42:28;98727.59;;;14.31
51149;BMP280;37210;50.058;8.688;2023-04-01T15:45:14;98728.69;;;14.49
51149;BMP280;37210;50.058;8.688;2023-04-01T15:47:59;98682.19;;;14.04
51149;BMP280;37210;50.058;8.688;2023-04-01T15:50:55;98736.81;;;14.19
51149;BMP280;37210;50.058;8.688;2023-04-01T15:53:50;98731.78;;;14.36
51149;BMP280;37210;50.058;8.688;2023-04-01T15:56:44;98701.56;;;14.02
51149;BMP280;37210;50.058;8.688;2023-04-01T15:59:41;98731.72;;;14.38
51149;BMP280;37210;50.058;8.688;2023-04-01T16:02:30;98739.13;;;14.28
51149;BMP280;37210;50.058;8.688;2023-04-01T16:05:06;98670.47;;;13.90
51149;BMP280;37210;50.058;8.688;2023-04-01T16:07:58;98700.94;;;13.95
51149;BMP280;37210;50.058;8.688;2023-04-01T16:10:52;98750.88;;;14.41
51149;BMP280;37210;50.058;8.688;2023-04-01T16:13:42;98574.16;;;13.22
51149;BMP280;37210;50.058;8.688;2023-04-01T16:16:28;98646.91;;;13.65
51149;BMP280;37210;50.058;8.688;2023-04-01T16:22:17;98752.13;;;14.31
51149;BMP280;37210;50.058;8.688;2023-04-01T16:24:54;98757.22;;;14.13
51149;BMP280;37210;50.058;8.688;2023-04-01T16:27:35;98765.34;;;14.07
51149;BMP280;37210;50.058;8.688;2023-04-01T16:30:26;98676.94;;;13.35
51149;BMP280;37210;50.058;8.688;2023-04-01T16:33:04;98670.53;;;13.42
51149;BMP280;37210;50.058;8.688;2023-04-01T16:35:44;98737.84;;;13.69
51149;BMP280;37210;50.058;8.688;2023-04-01T16:38:21;98751.09;;;13.66
51149;BMP280;37210;50.058;8.688;2023-04-01T16:41:04;98665.97;;;13.24
51149;BMP280;37210;50.058;8.688;2023-04-01T16:43:44;98758.69;;;13.74
51149;BMP280;37210;50.058;8.688;2023-04-01T16:46:33;98777.56;;;13.85
51149;BMP280;37210;50.058;8.688;2023-04-01T16:52:13;98766.91;;;13.40
51149;BMP280;37210;50.058;8.688;2023-04-01T16:54:47;98781.81;;;13.64
51149;BMP280;37210;50.058;8.688;2023-04-01T16:57:26;98796.66;;;13.40
51149;BMP280;37210;50.058;8.688;2023-04-01T17:00:03;98774.56;;;13.21
51149;BMP280;37210;50.058;8.688;2023-04-01T17:02:47;98815.31;;;13.33
51149;BMP280;37210;50.058;8.688;2023-04-01T17:05:37;98814.66;;;13.51
51149;BMP280;37210;50.058;8.688;2023-04-01T17:08:19;98811.53;;;13.40
51149;BMP280;37210;50.058;8.688;2023-04-01T17:10:58;98791.75;;;13.30
51149;BMP280;37210;50.058;8.688;2023-04-01T17:13:40;98826.06;;;13.50